Time;durP1;ratioP1;P1;durP2;ratioP2;P2;SDS_P1;SDS_P2;PMS_P1;PMS_P2;Temp;Humidity;BMP_temperature;BMP_pressure;BME280_temperature;BME280_humidity;BME280_pressure;Samples;Min_cycle;Max_cycle;Signal;HPM_P1;HPM_P2
2023/01/01 00:00:11;;;;;;;19.95;14.75;;;13.30;84.10;;;;;;5094171;27;20459;-89
2023/01/01 00:02:36;;;;;;;19.58;12.90;;;13.40;84.00;;;;;;5094366;27;20426;-89
2023/01/01 00:05:03;;;;;;;21.40;13.83;;;13.40;83.60;;;;;;5093542;27;20399;-89
2023/01/01 00:07:29;;;;;;;21.38;14.07;;;13.40;83.90;;;;;;5094375;27;20403;-89
2023/01/01 00:12:39;;;;;;;22.67;14.65;;;13.50;83.10;;;;;;5110198;27;20399;-87
2023/01/01 00:15:05;;;;;;;18.58;13.13;;;13.50;83.90;;;;;;5094108;27;20539;-89
2023/01/01 00:17:30;;;;;;;16.50;10.10;;;13.50;83.70;;;;;;5093077;27;20428;-90
2023/01/01 00:19:56;;;;;;;16.97;9.00;;;13.60;83.20;;;;;;5094667;27;20939;-89
2023/01/01 00:22:21;;;;;;;19.83;9.70;;;13.70;83.80;;;;;;5092209;27;20406;-88
2023/01/01 00:24:48;;;;;;;17.53;9.43;;;13.60;83.00;;;;;;5093827;27;20402;-88
2023/01/01 00:27:14;;;;;;;14.60;8.82;;;13.60;83.30;;;;;;5093100;27;20952;-91
2023/01/01 00:29:39;;;;;;;17.03;9.07;;;13.60;82.70;;;;;;5093622;27;20517;-89
2023/01/01 00:32:05;;;;;;;17.73;8.70;;;13.60;83.40;;;;;;5093582;27;20391;-89
2023/01/01 00:34:30;;;;;;;16.27;8.73;;;13.80;82.10;;;;;;5093445;27;20395;-87
2023/01/01 00:36:56;;;;;;;17.30;8.27;;;13.60;82.50;;;;;;5094034;27;20391;-90
2023/01/01 00:39:22;;;;;;;15.00;8.77;;;13.60;81.60;;;;;;5092465;27;20413;-89
2023/01/01 00:41:48;;;;;;;15.77;8.43;;;13.70;82.00;;;;;;5093860;27;20399;-89
2023/01/01 00:44:13;;;;;;;14.82;8.63;;;13.70;81.20;;;;;;5092658;27;20762;-89
2023/01/01 00:46:39;;;;;;;16.47;9.00;;;13.70;81.90;;;;;;5093565;27;20437;-89
2023/01/01 00:49:05;;;;;;;17.55;10.20;;;13.70;81.10;;;;;;5093756;27;20750;-89
2023/01/01 00:51:30;;;;;;;18.13;11.53;;;13.60;80.80;;;;;;5092948;27;20446;-91
2023/01/01 00:53:56;;;;;;;21.00;14.05;;;13.80;81.80;;;;;;5094039;27;20984;-89
2023/01/01 00:56:21;;;;;;;22.77;17.15;;;13.70;82.90;;;;;;5092256;27;20463;-90
2023/01/01 00:58:48;;;;;;;25.80;18.97;;;13.60;83.80;;;;;;5093561;27;20769;-87
2023/01/01 01:01:13;;;;;;;24.60;20.17;;;13.60;84.80;;;;;;5092341;27;20511;-88
2023/01/01 01:03:39;;;;;;;27.83;22.40;;;13.40;84.90;;;;;;5110099;27;20454;-88
2023/01/01 01:06:04;;;;;;;27.63;21.10;;;13.40;85.50;;;;;;5109912;27;20846;-89
2023/01/01 01:08:32;;;;;;;27.63;22.03;;;13.30;84.90;;;;;;5110116;27;20462;-89
2023/01/01 01:11:18;;;;;;;27.52;21.08;;;13.60;85.50;;;;;;5092917;27;20434;-88
2023/01/01 01:13:47;;;;;;;26.77;20.23;;;13.40;84.90;;;;;;5092259;28;20414;-89
2023/01/01 01:16:19;;;;;;;27.02;21.95;;;13.30;84.80;;;;;;5093356;27;20897;-88
2023/01/01 01:18:45;;;;;;;29.45;22.17;;;13.30;85.00;;;;;;5092099;27;20454;-89
2023/01/01 01:21:16;;;;;;;29.13;23.73;;;13.30;85.30;;;;;;5092835;27;20418;-87
2023/01/01 01:23:41;;;;;;;31.65;24.40;;;13.40;86.40;;;;;;5092703;27;20951;-88
2023/01/01 01:26:17;;;;;;;33.28;25.30;;;13.30;87.00;;;;;;5092398;27;20393;-90
2023/01/01 01:28:43;;;;;;;35.15;29.25;;;13.20;88.50;;;;;;5110013;28;20972;-89
2023/01/01 01:31:10;;;;;;;39.53;34.85;;;13.20;89.60;;;;;;5092070;27;20403;-91
2023/01/01 01:33:36;;;;;;;54.47;45.72;;;13.00;91.00;;;;;;5093463;28;20405;-88
2023/01/01 01:36:02;;;;;;;56.55;46.22;;;12.70;91.90;;;;;;5092461;27;20399;-89
2023/01/01 01:38:28;;;;;;;72.25;58.50;;;12.50;92.50;;;;;;5093365;28;20925;-90
2023/01/01 01:40:54;;;;;;;82.10;66.87;;;12.30;93.50;;;;;;5093035;28;20410;-90
2023/01/01 01:43:44;;;;;;;73.20;62.53;;;12.10;93.70;;;;;;5092361;28;20418;-90
2023/01/01 01:46:15;;;;;;;104.43;84.53;;;12.00;94.00;;;;;;5093250;28;20461;-91
2023/01/01 01:48:45;;;;;;;90.93;75.53;;;11.80;94.40;;;;;;5093037;28;20474;-92
2023/01/01 01:51:14;;;;;;;88.68;75.70;;;11.80;94.60;;;;;;5093589;28;20409;-89
2023/01/01 01:53:48;;;;;;;89.82;74.65;;;11.60;94.90;;;;;;5092821;28;20451;-90
2023/01/01 01:56:22;;;;;;;81.88;70.88;;;11.60;95.00;;;;;;5093449;28;20405;-91
2023/01/01 01:58:48;;;;;;;78.35;64.25;;;11.50;95.20;;;;;;5093488;28;20394;-91
2023/01/01 02:01:14;;;;;;;91.15;74.68;;;11.40;95.30;;;;;;5092645;28;20399;-91
2023/01/01 02:04:00;;;;;;;91.60;75.33;;;11.40;95.50;;;;;;5093813;28;20423;-90
2023/01/01 02:06:28;;;;;;;83.30;67.00;;;11.40;95.60;;;;;;5092382;28;20406;-90
2023/01/01 02:08:55;;;;;;;82.22;67.85;;;11.40;95.50;;;;;;5093231;28;21407;-91
2023/01/01 02:11:21;;;;;;;68.97;58.60;;;11.40;95.70;;;;;;5093032;28;20406;-88
2023/01/01 02:13:47;;;;;;;94.00;72.13;;;11.40;95.60;;;;;;5092722;28;20411;-90
2023/01/01 02:16:35;;;;;;;56.53;45.42;;;11.40;95.80;;;;;;5093306;28;20997;-89
2023/01/01 02:19:04;;;;;;;62.65;48.58;;;11.40;95.70;;;;;;5109367;28;20398;-90
2023/01/01 02:21:53;;;;;;;50.90;44.13;;;11.40;95.60;;;;;;5110750;28;20757;-90
2023/01/01 02:24:40;;;;;;;56.38;46.53;;;11.40;95.60;;;;;;5092043;28;20426;-91
2023/01/01 02:27:18;;;;;;;59.38;45.60;;;11.50;95.60;;;;;;5109615;28;20804;-89
2023/01/01 02:30:04;;;;;;;68.70;52.40;;;11.50;95.50;;;;;;5093429;28;20402;-91
2023/01/01 02:32:57;;;;;;;71.93;56.70;;;11.60;95.50;;;;;;5091792;28;20518;-90
2023/01/01 02:35:34;;;;;;;84.93;64.17;;;11.40;95.60;;;;;;5091231;28;20433;-90
2023/01/01 02:38:17;;;;;;;69.38;57.78;;;11.50;95.80;;;;;;5093294;28;20399;-92
2023/01/01 02:40:47;;;;;;;81.25;62.58;;;11.40;95.80;;;;;;5092233;28;20399;-88
2023/01/01 02:43:13;;;;;;;74.95;56.78;;;11.40;96.00;;;;;;5092895;28;20426;-90
2023/01/01 02:45:39;;;;;;;84.53;56.97;;;11.50;96.10;;;;;;5092038;28;20403;-92
2023/01/01 02:48:06;;;;;;;72.03;51.73;;;11.40;96.20;;;;;;5092997;28;20402;-91
2023/01/01 02:50:33;;;;;;;74.63;53.25;;;11.40;96.30;;;;;;5094698;27;20415;-92
2023/01/01 02:53:23;;;;;;;62.22;47.65;;;11.40;96.20;;;;;;5096163;27;20505;-91
2023/01/01 02:56:04;;;;;;;73.97;55.10;;;11.40;96.30;;;;;;5096859;27;20395;-90
2023/01/01 03:01:44;;;;;;;69.82;49.60;;;11.30;96.30;;;;;;5112499;27;20395;-91
2023/01/01 03:04:35;;;;;;;65.95;48.03;;;11.30;96.30;;;;;;5096758;27;20529;-89
2023/01/01 03:07:39;;;;;;;59.92;45.45;;;11.30;96.20;;;;;;5095604;27;20402;-91
2023/01/01 03:10:17;;;;;;;49.13;38.83;;;11.20;96.00;;;;;;5094354;27;20779;-89
2023/01/01 03:13:03;;;;;;;47.08;35.35;;;11.20;96.00;;;;;;5096683;27;20417;-89
2023/01/01 03:16:04;;;;;;;42.63;28.88;;;11.20;96.10;;;;;;5095405;27;20410;-91
2023/01/01 03:18:43;;;;;;;48.47;32.40;;;11.20;96.10;;;;;;5095507;27;20403;-94
2023/01/01 03:21:10;;;;;;;43.50;26.00;;;11.20;96.30;;;;;;5112850;27;20471;-90
2023/01/01 03:23:41;;;;;;;38.22;22.23;;;11.20;96.50;;;;;;5102923;27;20929;-90
2023/01/01 03:26:10;;;;;;;38.13;19.33;;;11.20;96.60;;;;;;5096512;27;20395;-90
2023/01/01 03:28:46;;;;;;;30.98;16.55;;;11.20;96.70;;;;;;5094959;27;20398;-90
2023/01/01 03:31:15;;;;;;;24.37;11.43;;;11.30;96.80;;;;;;5095983;27;20403;-90
2023/01/01 03:33:46;;;;;;;19.02;8.63;;;11.30;96.80;;;;;;5095121;27;20461;-89
2023/01/01 03:36:14;;;;;;;20.93;8.03;;;11.60;96.90;;;;;;5095023;27;20383;-89
2023/01/01 03:38:44;;;;;;;22.33;8.23;;;11.40;96.80;;;;;;5112440;27;20425;-89
2023/01/01 03:41:26;;;;;;;22.02;7.10;;;11.60;96.80;;;;;;5094049;27;20407;-89
2023/01/01 03:44:13;;;;;;;19.75;7.85;;;11.50;96.70;;;;;;5094780;27;20749;-89
2023/01/01 03:46:39;;;;;;;17.75;7.25;;;11.50;96.60;;;;;;5095113;27;20413;-90
2023/01/01 03:49:08;;;;;;;21.88;9.07;;;11.40;96.50;;;;;;5094860;27;20395;-90
2023/01/01 03:51:55;;;;;;;18.65;9.27;;;11.40;96.40;;;;;;5095642;27;20395;-90
2023/01/01 03:54:31;;;;;;;18.42;9.25;;;11.40;96.30;;;;;;5094301;27;20411;-89
2023/01/01 03:57:28;;;;;;;20.02;8.70;;;11.40;96.20;;;;;;5095320;27;20450;-90
2023/01/01 04:00:07;;;;;;;20.42;8.95;;;11.40;96.20;;;;;;5060992;27;20388;-89
2023/01/01 04:02:40;;;;;;;23.15;9.15;;;11.40;96.20;;;;;;5093987;27;20520;-90
2023/01/01 04:05:09;;;;;;;21.30;9.98;;;11.40;96.20;;;;;;5095628;27;20723;-89
2023/01/01 04:07:36;;;;;;;23.17;9.15;;;11.30;96.30;;;;;;5094504;27;20391;-91
2023/01/01 04:10:15;;;;;;;23.37;8.50;;;11.50;96.40;;;;;;5094972;27;20422;-91
2023/01/01 04:12:49;;;;;;;21.88;9.57;;;11.30;96.30;;;;;;5094732;27;20391;-90
2023/01/01 04:15:21;;;;;;;20.90;7.63;;;11.30;96.30;;;;;;5093895;27;20471;-91
2023/01/01 04:17:47;;;;;;;17.92;5.40;;;11.30;96.40;;;;;;5095236;27;20403;-90
2023/01/01 04:20:13;;;;;;;14.57;4.10;;;11.30;96.40;;;;;;5093766;27;20803;-89
2023/01/01 04:22:39;;;;;;;17.38;5.03;;;11.30;96.40;;;;;;5112039;27;20422;-89
2023/01/01 04:25:06;;;;;;;13.73;3.75;;;11.50;96.50;;;;;;5093486;27;20456;-89
2023/01/01 04:27:32;;;;;;;11.73;2.87;;;11.30;96.40;;;;;;5094290;27;20395;-91
2023/01/01 04:29:57;;;;;;;12.47;2.90;;;11.30;96.40;;;;;;5094510;27;20403;-90
2023/01/01 04:32:23;;;;;;;14.13;3.55;;;11.40;96.40;;;;;;5094081;27;20757;-89
2023/01/01 04:34:49;;;;;;;15.27;3.30;;;11.40;96.40;;;;;;5094727;27;20893;-89
2023/01/01 04:37:15;;;;;;;17.35;3.67;;;11.40;96.30;;;;;;5093213;27;20583;-91
2023/01/01 04:39:40;;;;;;;17.77;4.40;;;11.40;96.20;;;;;;5094666;27;20395;-91
2023/01/01 04:42:06;;;;;;;19.63;4.65;;;11.40;96.00;;;;;;5093488;27;20503;-89
2023/01/01 04:44:32;;;;;;;17.23;3.35;;;11.40;95.80;;;;;;5093808;27;20431;-88
2023/01/01 04:46:57;;;;;;;17.80;4.87;;;11.40;95.60;;;;;;5093965;27;20864;-91
2023/01/01 04:49:23;;;;;;;23.98;4.78;;;11.40;95.80;;;;;;5093889;27;20439;-89
2023/01/01 04:51:49;;;;;;;21.70;4.88;;;11.50;95.30;;;;;;5094467;27;20414;-89
2023/01/01 04:54:14;;;;;;;20.57;4.57;;;11.50;95.20;;;;;;5093112;27;20446;-91
2023/01/01 04:56:40;;;;;;;18.75;4.57;;;11.50;95.20;;;;;;5093725;27;20447;-88
2023/01/01 04:59:05;;;;;;;21.87;4.97;;;11.50;95.20;;;;;;5092928;27;21116;-89
2023/01/01 05:01:31;;;;;;;19.27;4.30;;;11.50;95.00;;;;;;5093965;27;20470;-90
2023/01/01 05:03:58;;;;;;;19.50;4.78;;;11.50;94.90;;;;;;5092421;27;21024;-90
2023/01/01 05:06:25;;;;;;;18.87;3.87;;;11.50;94.90;;;;;;5093277;27;20395;-89
2023/01/01 05:08:54;;;;;;;17.55;3.78;;;11.70;94.90;;;;;;5092885;27;20438;-88
2023/01/01 05:11:26;;;;;;;15.98;3.65;;;11.50;94.80;;;;;;5109035;27;20409;-88
2023/01/01 05:13:53;;;;;;;16.67;3.43;;;11.50;94.60;;;;;;5093209;27;20397;-91
2023/01/01 05:16:22;;;;;;;13.65;3.55;;;11.50;94.50;;;;;;5091993;27;20481;-88
2023/01/01 05:18:48;;;;;;;16.63;3.22;;;11.50;94.40;;;;;;5093712;27;20443;-90
2023/01/01 05:21:20;;;;;;;15.35;3.05;;;11.80;94.40;;;;;;5093124;27;20449;-90
2023/01/01 05:23:46;;;;;;;14.00;3.37;;;11.60;94.10;;;;;;5092480;27;20881;-89
2023/01/01 05:26:17;;;;;;;13.63;3.03;;;11.60;93.90;;;;;;5092669;27;20560;-91
2023/01/01 05:28:43;;;;;;;11.73;2.33;;;11.50;93.80;;;;;;5092059;27;20506;-88
2023/01/01 05:31:15;;;;;;;17.48;3.45;;;11.50;93.60;;;;;;5092634;27;20403;-89
2023/01/01 05:33:41;;;;;;;12.77;2.20;;;11.50;93.80;;;;;;5108500;27;20446;-90
2023/01/01 05:36:09;;;;;;;10.25;1.95;;;11.50;93.60;;;;;;5093082;27;20411;-87
2023/01/01 05:38:35;;;;;;;12.98;2.20;;;11.50;93.40;;;;;;5091781;28;20415;-87
2023/01/01 05:41:08;;;;;;;13.87;2.10;;;11.50;93.30;;;;;;5092084;27;20902;-87
2023/01/01 05:43:34;;;;;;;13.85;1.85;;;11.60;93.00;;;;;;5092328;27;20422;-87
2023/01/01 05:46:01;;;;;;;9.00;1.60;;;11.50;93.00;;;;;;5109380;28;20402;-90
2023/01/01 05:48:27;;;;;;;11.38;1.70;;;11.50;92.60;;;;;;5092740;28;20425;-91
2023/01/01 05:50:52;;;;;;;10.88;1.40;;;11.50;92.60;;;;;;5091683;28;20434;-91
2023/01/01 05:53:18;;;;;;;10.40;1.43;;;11.50;92.50;;;;;;5093182;28;20398;-87
2023/01/01 05:55:44;;;;;;;9.60;1.70;;;11.50;92.40;;;;;;5091713;28;20889;-88
2023/01/01 05:58:09;;;;;;;10.63;1.60;;;11.70;92.60;;;;;;5092364;28;20391;-89
2023/01/01 06:00:35;;;;;;;10.95;1.77;;;11.40;92.40;;;;;;5092590;28;20429;-89
2023/01/01 06:03:01;;;;;;;11.53;2.27;;;11.30;92.30;;;;;;5091672;28;20421;-90
2023/01/01 06:05:26;;;;;;;10.43;1.50;;;11.30;92.10;;;;;;5109443;28;20406;-87
2023/01/01 06:07:52;;;;;;;11.43;1.52;;;11.30;92.10;;;;;;5108295;28;20402;-90
2023/01/01 06:10:17;;;;;;;8.77;1.33;;;11.10;92.00;;;;;;5100161;27;20405;-88
2023/01/01 06:12:43;;;;;;;10.80;1.57;;;11.40;92.10;;;;;;5109574;27;20385;-87
2023/01/01 06:15:09;;;;;;;10.20;1.77;;;11.20;92.20;;;;;;5112807;27;20392;-87
2023/01/01 06:17:34;;;;;;;11.02;1.52;;;11.20;92.00;;;;;;5111453;27;20804;-88
2023/01/01 06:20:00;;;;;;;11.67;1.30;;;11.10;91.90;;;;;;5112320;27;20487;-88
2023/01/01 06:22:26;;;;;;;12.82;1.60;;;11.10;92.00;;;;;;5112730;27;20389;-89
2023/01/01 06:24:51;;;;;;;10.77;1.50;;;11.10;91.80;;;;;;5112126;27;20420;-89
2023/01/01 06:27:17;;;;;;;14.10;2.05;;;11.30;91.50;;;;;;5116364;27;20744;-90
2023/01/01 06:29:42;;;;;;;10.93;1.40;;;11.30;91.30;;;;;;5115704;27;20487;-90
2023/01/01 06:32:08;;;;;;;13.50;1.87;;;11.10;91.00;;;;;;5134163;27;20423;-90
2023/01/01 06:34:34;;;;;;;12.38;2.15;;;11.40;91.00;;;;;;5115638;27;20393;-90
2023/01/01 06:36:59;;;;;;;12.77;1.50;;;11.40;91.00;;;;;;5117087;27;20388;-91
2023/01/01 06:39:25;;;;;;;11.40;1.90;;;11.20;91.00;;;;;;5116225;27;20446;-89
2023/01/01 06:41:50;;;;;;;14.60;1.90;;;11.20;90.80;;;;;;5116004;27;20409;-90
2023/01/01 06:44:16;;;;;;;12.03;1.73;;;11.40;91.00;;;;;;5116056;27;20417;-89
2023/01/01 06:46:41;;;;;;;11.20;1.90;;;11.20;91.00;;;;;;5116077;27;20433;-88
2023/01/01 06:49:10;;;;;;;12.60;2.00;;;11.20;90.60;;;;;;5112123;27;20396;-88
2023/01/01 06:51:39;;;;;;;13.18;2.28;;;11.20;90.60;;;;;;5105120;27;20391;-90
2023/01/01 06:54:06;;;;;;;14.05;2.08;;;11.20;90.90;;;;;;5112715;27;20408;-90
2023/01/01 06:56:33;;;;;;;13.52;1.73;;;11.20;90.90;;;;;;5115154;27;20401;-89
2023/01/01 06:58:59;;;;;;;15.30;2.57;;;11.40;90.70;;;;;;5116226;27;20389;-89
2023/01/01 07:01:27;;;;;;;13.77;2.40;;;11.20;90.80;;;;;;5116338;27;20763;-90
2023/01/01 07:04:02;;;;;;;15.85;2.00;;;11.20;90.80;;;;;;5115136;27;20500;-91
2023/01/01 07:06:29;;;;;;;16.00;1.73;;;11.20;90.80;;;;;;5115995;27;20491;-88
2023/01/01 07:08:55;;;;;;;16.20;2.28;;;11.30;90.80;;;;;;5132349;27;20410;-90
2023/01/01 07:11:22;;;;;;;15.20;2.15;;;11.20;90.90;;;;;;5116695;27;20409;-88
2023/01/01 07:13:47;;;;;;;17.60;2.23;;;11.10;90.90;;;;;;5115256;27;20911;-89
2023/01/01 07:16:13;;;;;;;14.20;2.13;;;11.30;91.00;;;;;;5115856;27;20493;-88
2023/01/01 07:18:39;;;;;;;18.65;2.95;;;11.10;91.00;;;;;;5104299;27;20404;-88
2023/01/01 07:21:20;;;;;;;21.75;3.08;;;11.10;91.20;;;;;;5099550;27;20399;-88
2023/01/01 07:23:46;;;;;;;17.52;2.72;;;11.10;91.10;;;;;;5110555;27;20424;-89
2023/01/01 07:26:11;;;;;;;18.90;2.67;;;11.00;91.20;;;;;;5120595;27;20873;-90
2023/01/01 07:28:37;;;;;;;18.40;3.10;;;11.00;91.50;;;;;;5105707;27;20488;-92
2023/01/01 07:31:02;;;;;;;20.98;2.95;;;11.00;91.30;;;;;;5104992;27;20464;-89
2023/01/01 07:33:28;;;;;;;16.23;2.50;;;11.00;91.20;;;;;;5120502;27;20411;-89
2023/01/01 07:36:03;;;;;;;20.50;3.20;;;10.80;91.10;;;;;;5103974;27;20405;-88
2023/01/01 07:38:28;;;;;;;20.63;3.53;;;11.00;91.20;;;;;;5102850;27;20399;-88
2023/01/01 07:40:54;;;;;;;21.87;3.40;;;11.10;91.20;;;;;;5109087;27;20405;-89
2023/01/01 07:43:20;;;;;;;17.42;3.38;;;11.10;91.30;;;;;;5095820;27;20509;-89
2023/01/01 07:46:02;;;;;;;20.80;3.60;;;11.00;91.30;;;;;;5104682;27;20775;-90
2023/01/01 07:48:29;;;;;;;20.70;3.55;;;10.90;91.20;;;;;;5112750;27;20399;-89
2023/01/01 07:51:02;;;;;;;24.10;2.88;;;11.00;91.30;;;;;;5098123;27;21189;-89
2023/01/01 07:53:28;;;;;;;18.42;3.45;;;10.90;91.40;;;;;;5094232;27;20398;-88
2023/01/01 07:55:53;;;;;;;19.58;3.67;;;10.90;91.20;;;;;;5094858;27;20421;-89
2023/01/01 07:58:19;;;;;;;19.83;3.53;;;10.60;91.10;;;;;;5094595;27;20413;-89
2023/01/01 08:00:47;;;;;;;23.03;3.17;;;11.00;91.20;;;;;;5093731;27;20398;-89
2023/01/01 08:03:14;;;;;;;22.08;3.25;;;11.10;91.40;;;;;;5093635;27;20431;-91
2023/01/01 08:05:43;;;;;;;19.40;2.90;;;10.90;91.10;;;;;;5092622;27;20489;-88
2023/01/01 08:08:09;;;;;;;21.42;2.83;;;10.80;91.10;;;;;;5094330;27;20399;-89
2023/01/01 08:10:35;;;;;;;22.73;3.45;;;11.00;91.20;;;;;;5093814;27;20888;-87
2023/01/01 08:13:03;;;;;;;22.88;3.50;;;11.00;91.30;;;;;;5094992;27;20893;-89
2023/01/01 08:15:29;;;;;;;21.35;3.00;;;10.90;91.10;;;;;;5093904;27;20411;-88
2023/01/01 08:17:59;;;;;;;19.80;3.22;;;10.90;91.30;;;;;;5093895;27;20436;-89
2023/01/01 08:20:27;;;;;;;20.43;3.17;;;10.80;91.40;;;;;;5094241;27;21036;-88
2023/01/01 08:22:53;;;;;;;23.25;3.25;;;10.80;91.60;;;;;;5093054;27;20510;-89
2023/01/01 08:25:18;;;;;;;21.85;3.60;;;10.80;91.70;;;;;;5111321;27;20482;-89
2023/01/01 08:27:44;;;;;;;19.50;2.95;;;10.80;91.60;;;;;;5092951;27;20407;-89
2023/01/01 08:30:12;;;;;;;22.53;3.57;;;11.00;91.60;;;;;;5094964;27;20402;-91
2023/01/01 08:32:38;;;;;;;18.17;2.97;;;10.80;91.70;;;;;;5093323;27;20485;-90
2023/01/01 08:35:04;;;;;;;23.43;3.40;;;10.90;91.80;;;;;;5093315;27;20777;-88
2023/01/01 08:37:30;;;;;;;24.30;4.18;;;10.90;91.80;;;;;;5110482;27;20395;-90
2023/01/01 08:39:55;;;;;;;23.60;2.95;;;10.90;91.70;;;;;;5093543;27;20444;-90
2023/01/01 08:42:21;;;;;;;22.13;4.00;;;10.90;91.70;;;;;;5099522;27;20500;-88
2023/01/01 08:44:47;;;;;;;24.63;3.07;;;11.00;91.60;;;;;;5113341;27;20899;-90
2023/01/01 08:47:24;;;;;;;23.23;3.40;;;11.00;91.50;;;;;;5114913;27;20932;-89
2023/01/01 08:49:51;;;;;;;23.93;3.37;;;11.00;91.50;;;;;;5113433;27;20397;-91
2023/01/01 08:52:17;;;;;;;19.25;3.20;;;11.10;91.30;;;;;;5113616;27;20401;-88
2023/01/01 08:54:44;;;;;;;24.40;4.03;;;11.00;91.40;;;;;;5113654;27;20469;-91
2023/01/01 08:57:10;;;;;;;22.33;3.67;;;11.10;91.30;;;;;;5112774;27;20875;-89
2023/01/01 08:59:36;;;;;;;22.07;3.97;;;11.00;91.30;;;;;;5113919;27;20413;-91
2023/01/01 09:02:03;;;;;;;23.50;3.93;;;11.00;91.20;;;;;;5112342;27;20944;-89
2023/01/01 09:04:32;;;;;;;19.17;3.33;;;11.20;91.30;;;;;;5114936;27;20424;-90
2023/01/01 09:06:58;;;;;;;23.25;3.30;;;11.00;91.10;;;;;;5113513;27;20412;-90
2023/01/01 09:09:23;;;;;;;27.27;3.75;;;11.30;91.30;;;;;;5114679;27;20898;-90
2023/01/01 09:11:51;;;;;;;21.92;3.88;;;11.20;91.30;;;;;;5113927;27;20444;-90
2023/01/01 09:14:17;;;;;;;19.60;3.67;;;11.10;91.10;;;;;;5130526;27;20397;-92
2023/01/01 09:16:46;;;;;;;21.17;3.50;;;11.10;91.00;;;;;;5131626;27;20565;-91
2023/01/01 09:19:12;;;;;;;26.07;4.10;;;11.10;91.00;;;;;;5113112;27;20543;-90
2023/01/01 09:21:38;;;;;;;22.70;3.80;;;11.10;91.20;;;;;;5114704;27;20465;-91
2023/01/01 09:24:04;;;;;;;26.58;3.97;;;11.10;91.00;;;;;;5113167;27;20923;-91
2023/01/01 09:26:30;;;;;;;21.20;4.20;;;11.10;90.90;;;;;;5113791;27;20432;-89
2023/01/01 09:28:57;;;;;;;23.00;3.80;;;11.10;91.00;;;;;;5113561;27;20436;-91
2023/01/01 09:31:22;;;;;;;21.13;3.15;;;11.10;90.80;;;;;;5113752;27;20400;-91
2023/01/01 09:33:48;;;;;;;19.73;3.25;;;11.10;90.80;;;;;;5113948;27;20891;-88
2023/01/01 09:36:29;;;;;;;22.67;3.28;;;11.30;90.80;;;;;;5113194;27;20389;-90
2023/01/01 09:38:57;;;;;;;24.48;4.32;;;11.10;90.80;;;;;;5113991;27;20401;-91
2023/01/01 09:41:42;;;;;;;22.50;3.45;;;11.10;90.90;;;;;;5120351;27;20414;-90
2023/01/01 09:44:45;;;;;;;19.67;2.88;;;11.10;91.00;;;;;;5092958;27;20438;-91
2023/01/01 09:47:39;;;;;;;21.70;3.13;;;11.10;90.90;;;;;;5093723;28;20757;-91
2023/01/01 09:50:12;;;;;;;25.27;4.10;;;11.10;90.80;;;;;;5092348;28;20433;-90
2023/01/01 09:53:11;;;;;;;21.85;3.15;;;11.10;90.90;;;;;;5109935;28;20398;-90
2023/01/01 09:55:53;;;;;;;24.33;3.85;;;11.20;91.10;;;;;;5110128;28;20759;-89
2023/01/01 09:58:24;;;;;;;17.98;2.80;;;11.20;90.80;;;;;;5091985;28;20407;-91
2023/01/01 10:00:54;;;;;;;23.63;3.95;;;11.30;90.90;;;;;;5097769;27;20405;-91
2023/01/01 10:03:59;;;;;;;20.85;3.63;;;11.30;90.60;;;;;;5096868;27;20762;-90
2023/01/01 10:06:29;;;;;;;24.03;4.17;;;11.30;90.60;;;;;;5097186;27;20765;-90
2023/01/01 10:09:19;;;;;;;21.35;3.17;;;11.40;90.70;;;;;;5097820;27;20406;-91
2023/01/01 10:12:11;;;;;;;20.80;3.43;;;11.50;90.50;;;;;;5113877;27;20727;-92
2023/01/01 10:14:42;;;;;;;22.02;3.15;;;11.80;90.10;;;;;;5097587;27;20402;-90
2023/01/01 10:17:16;;;;;;;18.00;3.17;;;11.70;89.70;;;;;;5097181;27;20407;-91
2023/01/01 10:19:51;;;;;;;22.35;3.15;;;11.70;90.10;;;;;;5113420;27;20452;-91
2023/01/01 10:22:34;;;;;;;23.88;3.13;;;11.70;89.20;;;;;;5097191;27;20398;-90
2023/01/01 10:25:04;;;;;;;22.85;3.83;;;11.80;89.50;;;;;;5095398;27;20407;-91
2023/01/01 10:27:40;;;;;;;17.80;3.17;;;11.80;89.30;;;;;;5096654;27;20471;-90
2023/01/01 10:30:18;;;;;;;21.52;3.33;;;11.70;88.50;;;;;;5095714;27;20825;-90
2023/01/01 10:32:47;;;;;;;21.58;3.60;;;11.60;89.10;;;;;;5094992;27;20394;-87
2023/01/01 10:35:16;;;;;;;20.40;3.22;;;11.50;89.60;;;;;;5096151;27;20395;-91
2023/01/01 10:37:42;;;;;;;20.85;3.28;;;11.70;89.40;;;;;;5095245;27;20434;-92
2023/01/01 10:40:17;;;;;;;20.08;2.67;;;11.70;90.00;;;;;;5096665;27;20430;-91
2023/01/01 10:42:52;;;;;;;20.10;2.67;;;11.40;89.80;;;;;;5096300;27;20413;-91
2023/01/01 10:45:38;;;;;;;19.40;3.25;;;11.40;89.20;;;;;;5095933;27;20411;-90
2023/01/01 10:48:24;;;;;;;16.85;3.03;;;11.40;89.40;;;;;;5113241;27;20493;-88
2023/01/01 10:50:54;;;;;;;14.70;2.53;;;11.40;89.70;;;;;;5095428;27;20407;-90
2023/01/01 10:53:25;;;;;;;16.25;2.60;;;11.50;88.70;;;;;;5095693;27;20486;-89
2023/01/01 10:55:57;;;;;;;16.55;2.80;;;11.60;87.90;;;;;;5096222;27;20407;-89
2023/01/01 10:58:44;;;;;;;17.48;2.55;;;11.90;88.20;;;;;;5095594;27;20394;-91
2023/01/01 11:01:21;;;;;;;16.58;2.40;;;11.70;87.60;;;;;;5113120;27;20399;-90
2023/01/01 11:03:53;;;;;;;15.80;2.42;;;11.80;87.30;;;;;;5111600;27;20929;-89
2023/01/01 11:06:26;;;;;;;17.95;2.45;;;11.70;87.50;;;;;;5113211;27;20762;-87
2023/01/01 11:08:55;;;;;;;19.92;2.92;;;11.70;86.70;;;;;;5096028;27;20753;-91
2023/01/01 11:11:34;;;;;;;16.40;2.35;;;11.70;86.60;;;;;;5094135;27;20489;-92
2023/01/01 11:14:05;;;;;;;16.70;2.60;;;11.70;86.60;;;;;;5095750;27;20395;-89
2023/01/01 11:16:31;;;;;;;17.30;2.53;;;11.70;87.20;;;;;;5095089;27;20394;-91
2023/01/01 11:19:06;;;;;;;15.52;2.38;;;11.80;87.70;;;;;;5096433;27;20793;-90
2023/01/01 11:21:33;;;;;;;19.65;2.40;;;11.90;86.80;;;;;;5094703;27;20399;-89
2023/01/01 11:24:17;;;;;;;15.48;2.25;;;11.70;87.10;;;;;;5094616;27;20423;-90
2023/01/01 11:26:43;;;;;;;14.48;2.08;;;11.70;87.00;;;;;;5112579;27;20442;-90
2023/01/01 11:29:18;;;;;;;14.85;1.73;;;11.70;86.70;;;;;;5094553;27;20445;-89
2023/01/01 11:31:46;;;;;;;15.57;2.35;;;11.70;87.00;;;;;;5113464;27;20406;-91
2023/01/01 11:34:36;;;;;;;14.88;2.28;;;11.60;86.90;;;;;;5111982;27;20619;-88
2023/01/01 11:37:27;;;;;;;16.75;2.00;;;11.50;86.80;;;;;;5112071;27;20418;-88
2023/01/01 11:39:56;;;;;;;16.30;2.03;;;11.60;86.90;;;;;;5095775;27;20481;-90
2023/01/01 11:42:27;;;;;;;14.87;1.97;;;11.50;88.00;;;;;;5094117;27;20488;-91
2023/01/01 11:45:02;;;;;;;15.23;2.20;;;11.50;87.60;;;;;;5095271;27;20450;-90
2023/01/01 11:47:33;;;;;;;15.15;2.20;;;11.50;87.10;;;;;;5111881;27;20510;-91
2023/01/01 11:50:16;;;;;;;18.88;2.30;;;11.50;87.50;;;;;;5094629;27;20449;-90
2023/01/01 11:52:44;;;;;;;15.90;3.10;;;11.50;88.30;;;;;;5095002;27;20489;-91
2023/01/01 11:55:41;;;;;;;16.70;2.77;;;11.60;87.70;;;;;;5094554;27;20410;-90
2023/01/01 11:58:28;;;;;;;14.43;2.13;;;11.70;88.10;;;;;;5095187;27;20409;-90
2023/01/01 12:00:58;;;;;;;18.30;2.72;;;11.70;87.10;;;;;;5111803;27;20568;-89
2023/01/01 12:03:35;;;;;;;15.95;2.05;;;11.80;86.60;;;;;;5094312;27;20469;-91
2023/01/01 12:06:18;;;;;;;15.10;2.15;;;11.80;87.20;;;;;;5095346;27;20905;-92
2023/01/01 12:09:23;;;;;;;16.40;1.95;;;11.80;87.30;;;;;;5093706;27;20403;-89
2023/01/01 12:12:00;;;;;;;14.75;1.80;;;11.80;86.50;;;;;;5101563;27;20452;-88
2023/01/01 12:14:35;;;;;;;18.30;2.80;;;11.80;86.90;;;;;;5094350;27;20449;-89
2023/01/01 12:17:13;;;;;;;14.32;1.70;;;11.80;86.80;;;;;;5092986;27;20414;-89
2023/01/01 12:19:47;;;;;;;16.98;2.10;;;11.70;86.60;;;;;;5093952;27;20498;-89
2023/01/01 12:22:16;;;;;;;16.42;2.33;;;11.70;87.40;;;;;;5110254;28;20932;-88
2023/01/01 12:24:42;;;;;;;14.27;1.92;;;11.80;87.40;;;;;;5092225;27;20460;-89
2023/01/01 12:27:14;;;;;;;18.88;2.28;;;11.80;87.00;;;;;;5093932;27;20806;-89
2023/01/01 12:30:08;;;;;;;16.23;2.05;;;11.80;87.80;;;;;;5092759;27;20498;-88
2023/01/01 12:32:43;;;;;;;16.03;2.20;;;11.90;87.30;;;;;;5079535;27;20450;-89
2023/01/01 12:35:15;;;;;;;14.82;2.00;;;12.00;86.90;;;;;;5110213;27;20407;-89
2023/01/01 12:38:23;;;;;;;11.60;1.80;;;12.20;86.10;;;;;;5093656;27;20402;-89
2023/01/01 12:41:00;;;;;;;15.77;1.92;;;12.30;85.10;;;;;;5085816;27;20472;-90
2023/01/01 12:44:10;;;;;;;16.02;1.80;;;12.20;85.90;;;;;;5092466;27;20994;-90
2023/01/01 12:46:56;;;;;;;12.35;1.30;;;12.20;85.60;;;;;;5093329;27;20409;-90
2023/01/01 12:49:48;;;;;;;12.68;1.85;;;12.20;85.60;;;;;;5094012;27;20418;-90
2023/01/01 12:52:21;;;;;;;11.38;1.67;;;12.20;85.30;;;;;;5083949;27;20460;-90
2023/01/01 12:55:04;;;;;;;13.68;1.83;;;12.20;86.60;;;;;;5109960;27;20407;-90
2023/01/01 12:57:49;;;;;;;15.43;1.73;;;12.20;86.10;;;;;;5109442;27;20777;-90
2023/01/01 13:00:18;;;;;;;15.13;2.45;;;12.10;86.00;;;;;;5091796;27;20451;-89
2023/01/01 13:02:51;;;;;;;15.02;2.25;;;12.00;86.30;;;;;;5092891;27;20479;-89